sensor_id;sensor_type;location;lat;lon;timestamp;pressure;altitude;pressure_sealevel;temperature;humidity
21730;BME280;11027;51.030;13.812;2023-05-24T00:01:04;100515.25;;;11.88;75.36
21730;BME280;11027;51.030;13.812;2023-05-24T00:03:31;100519.00;;;11.87;75.35
21730;BME280;11027;51.030;13.812;2023-05-24T00:05:59;100530.06;;;11.93;75.39
21730;BME280;11027;51.030;13.812;2023-05-24T00:08:24;100531.28;;;11.91;75.16
21730;BME280;11027;51.030;13.812;2023-05-24T00:10:49;100536.75;;;11.82;74.86
21730;BME280;11027;51.030;13.812;2023-05-24T00:13:14;100534.38;;;11.79;75.23
21730;BME280;11027;51.030;13.812;2023-05-24T00:15:40;100536.44;;;11.77;74.98
21730;BME280;11027;51.030;13.812;2023-05-24T00:18:05;100533.41;;;11.72;74.92
21730;BME280;11027;51.030;13.812;2023-05-24T00:20:30;100541.66;;;11.64;74.34
21730;BME280;11027;51.030;13.812;2023-05-24T00:22:56;100533.13;;;11.59;74.24
21730;BME280;11027;51.030;13.812;2023-05-24T00:25:21;100534.84;;;11.60;74.11
21730;BME280;11027;51.030;13.812;2023-05-24T00:27:46;100534.47;;;11.63;74.33
21730;BME280;11027;51.030;13.812;2023-05-24T00:30:12;100533.34;;;11.57;73.63
21730;BME280;11027;51.030;13.812;2023-05-24T00:32:37;100538.13;;;11.55;73.65
21730;BME280;11027;51.030;13.812;2023-05-24T00:35:02;100546.09;;;11.57;73.69
21730;BME280;11027;51.030;13.812;2023-05-24T00:37:28;100549.50;;;11.59;73.78
21730;BME280;11027;51.030;13.812;2023-05-24T00:39:53;100539.63;;;11.58;73.38
21730;BME280;11027;51.030;13.812;2023-05-24T00:42:19;100543.22;;;11.58;73.25
21730;BME280;11027;51.030;13.812;2023-05-24T00:44:44;100548.16;;;11.55;73.29
21730;BME280;11027;51.030;13.812;2023-05-24T00:47:09;100557.72;;;11.51;73.31
21730;BME280;11027;51.030;13.812;2023-05-24T00:49:35;100548.53;;;11.52;73.50
21730;BME280;11027;51.030;13.812;2023-05-24T00:52:00;100557.41;;;11.54;72.96
21730;BME280;11027;51.030;13.812;2023-05-24T00:54:27;100558.09;;;11.48;72.90
21730;BME280;11027;51.030;13.812;2023-05-24T00:56:52;100555.38;;;11.48;72.88
21730;BME280;11027;51.030;13.812;2023-05-24T00:59:18;100555.41;;;11.39;72.25
21730;BME280;11027;51.030;13.812;2023-05-24T01:01:44;100561.53;;;11.41;72.33
21730;BME280;11027;51.030;13.812;2023-05-24T01:04:13;100558.44;;;11.45;72.34
21730;BME280;11027;51.030;13.812;2023-05-24T01:07:17;100568.53;;;11.36;71.88
21730;BME280;11027;51.030;13.812;2023-05-24T01:09:51;100566.31;;;11.39;71.65
21730;BME280;11027;51.030;13.812;2023-05-24T01:12:26;100565.81;;;11.36;71.63
21730;BME280;11027;51.030;13.812;2023-05-24T01:14:58;100569.06;;;11.31;71.59
21730;BME280;11027;51.030;13.812;2023-05-24T01:17:30;100570.09;;;11.30;71.16
21730;BME280;11027;51.030;13.812;2023-05-24T01:20:00;100566.38;;;11.23;71.65
21730;BME280;11027;51.030;13.812;2023-05-24T01:28:11;100563.38;;;11.41;71.84
21730;BME280;11027;51.030;13.812;2023-05-24T01:30:39;100562.22;;;11.44;71.74
21730;BME280;11027;51.030;13.812;2023-05-24T01:33:05;100565.63;;;11.46;71.94
21730;BME280;11027;51.030;13.812;2023-05-24T01:35:30;100569.56;;;11.35;71.93
21730;BME280;11027;51.030;13.812;2023-05-24T01:37:56;100572.81;;;11.30;71.93
21730;BME280;11027;51.030;13.812;2023-05-24T01:40:21;100572.16;;;11.20;72.06
21730;BME280;11027;51.030;13.812;2023-05-24T01:43:06;100579.00;;;11.16;72.13
21730;BME280;11027;51.030;13.812;2023-05-24T01:45:38;100580.72;;;11.09;71.83
21730;BME280;11027;51.030;13.812;2023-05-24T01:48:41;100580.22;;;11.05;71.77
21730;BME280;11027;51.030;13.812;2023-05-24T01:51:10;100591.66;;;10.92;69.58
21730;BME280;11027;51.030;13.812;2023-05-24T01:53:45;100583.47;;;10.84;69.35
21730;BME280;11027;51.030;13.812;2023-05-24T01:56:11;100585.53;;;10.82;69.05
21730;BME280;11027;51.030;13.812;2023-05-24T01:58:39;100585.88;;;10.79;68.93
21730;BME280;11027;51.030;13.812;2023-05-24T02:01:06;100593.03;;;10.80;68.98
21730;BME280;11027;51.030;13.812;2023-05-24T02:03:32;100594.75;;;10.81;68.87
21730;BME280;11027;51.030;13.812;2023-05-24T02:05:58;100585.88;;;10.79;68.79
21730;BME280;11027;51.030;13.812;2023-05-24T02:08:23;100585.53;;;10.82;69.01
21730;BME280;11027;51.030;13.812;2023-05-24T02:10:48;100580.06;;;10.82;68.90
21730;BME280;11027;51.030;13.812;2023-05-24T02:13:13;100582.13;;;10.88;69.12
21730;BME280;11027;51.030;13.812;2023-05-24T02:15:42;100583.84;;;10.89;69.21
21730;BME280;11027;51.030;13.812;2023-05-24T02:18:08;100589.97;;;10.91;68.70
21730;BME280;11027;51.030;13.812;2023-05-24T02:20:35;100592.34;;;10.86;68.45
21730;BME280;11027;51.030;13.812;2023-05-24T02:23:02;100572.59;;;10.68;68.05
21730;BME280;11027;51.030;13.812;2023-05-24T02:25:28;100582.50;;;10.60;67.94
21730;BME280;11027;51.030;13.812;2023-05-24T02:27:53;100580.63;;;10.53;67.52
21730;BME280;11027;51.030;13.812;2023-05-24T02:30:18;100588.13;;;10.51;67.81
21730;BME280;11027;51.030;13.812;2023-05-24T02:32:43;100582.81;;;10.57;67.76
21730;BME280;11027;51.030;13.812;2023-05-24T02:35:09;100587.28;;;10.50;67.33
21730;BME280;11027;51.030;13.812;2023-05-24T02:37:34;100580.09;;;10.41;67.22
21730;BME280;11027;51.030;13.812;2023-05-24T02:39:59;100576.34;;;10.34;67.53
21730;BME280;11027;51.030;13.812;2023-05-24T02:42:25;100578.69;;;10.29;67.68
21730;BME280;11027;51.030;13.812;2023-05-24T02:44:50;100576.53;;;10.32;68.01
21730;BME280;11027;51.030;13.812;2023-05-24T02:47:17;100578.38;;;10.32;67.81
21730;BME280;11027;51.030;13.812;2023-05-24T02:49:42;100579.75;;;10.36;67.93
21730;BME280;11027;51.030;13.812;2023-05-24T02:52:07;100573.81;;;10.32;67.75
21730;BME280;11027;51.030;13.812;2023-05-24T02:54:33;100580.44;;;10.30;67.84
21730;BME280;11027;51.030;13.812;2023-05-24T02:56:58;100578.06;;;10.35;67.75
21730;BME280;11027;51.030;13.812;2023-05-24T02:59:23;100576.03;;;10.37;67.75
21730;BME280;11027;51.030;13.812;2023-05-24T03:01:49;100580.78;;;10.43;67.89
21730;BME280;11027;51.030;13.812;2023-05-24T03:04:14;100574.81;;;10.39;67.68
21730;BME280;11027;51.030;13.812;2023-05-24T03:06:39;100571.94;;;10.33;67.64
21730;BME280;11027;51.030;13.812;2023-05-24T03:09:05;100562.03;;;10.32;67.46
21730;BME280;11027;51.030;13.812;2023-05-24T03:11:30;100569.84;;;10.27;67.55
21730;BME280;11027;51.030;13.812;2023-05-24T03:13:56;100575.97;;;10.29;67.94
21730;BME280;11027;51.030;13.812;2023-05-24T03:16:21;100573.81;;;10.32;68.24
21730;BME280;11027;51.030;13.812;2023-05-24T03:18:46;100581.47;;;10.37;68.14
21730;BME280;11027;51.030;13.812;2023-05-24T03:21:14;100579.41;;;10.39;67.97
21730;BME280;11027;51.030;13.812;2023-05-24T03:23:40;100580.78;;;10.43;68.03
21730;BME280;11027;51.030;13.812;2023-05-24T03:26:05;100580.25;;;10.39;68.10
21730;BME280;11027;51.030;13.812;2023-05-24T03:28:31;100591.31;;;10.38;68.54
21730;BME280;11027;51.030;13.812;2023-05-24T03:30:57;100581.47;;;10.37;68.83
21730;BME280;11027;51.030;13.812;2023-05-24T03:33:23;100587.44;;;10.40;68.95
21730;BME280;11027;51.030;13.812;2023-05-24T03:35:48;100596.44;;;10.41;68.97
21730;BME280;11027;51.030;13.812;2023-05-24T03:38:13;100588.94;;;10.35;69.09
21730;BME280;11027;51.030;13.812;2023-05-24T03:40:38;100581.78;;;10.34;69.24
21730;BME280;11027;51.030;13.812;2023-05-24T03:43:04;100584.16;;;10.29;69.43
21730;BME280;11027;51.030;13.812;2023-05-24T03:45:29;100580.44;;;10.30;69.66
21730;BME280;11027;51.030;13.812;2023-05-24T03:47:54;100586.06;;;10.36;69.53
21730;BME280;11027;51.030;13.812;2023-05-24T03:50:20;100592.88;;;10.40;69.56
21730;BME280;11027;51.030;13.812;2023-05-24T03:52:45;100598.13;;;10.34;69.30
21730;BME280;11027;51.030;13.812;2023-05-24T03:55:12;100595.03;;;10.29;69.45
21730;BME280;11027;51.030;13.812;2023-05-24T03:57:39;100598.47;;;10.31;69.59
21730;BME280;11027;51.030;13.812;2023-05-24T04:00:04;100603.94;;;10.31;69.35
21730;BME280;11027;51.030;13.812;2023-05-24T04:02:31;100606.50;;;10.32;69.19
21730;BME280;11027;51.030;13.812;2023-05-24T04:04:56;100600.84;;;10.34;68.73
21730;BME280;11027;51.030;13.812;2023-05-24T04:07:21;100609.38;;;10.31;68.63
21730;BME280;11027;51.030;13.812;2023-05-24T04:09:48;100609.50;;;10.21;68.12
21730;BME280;11027;51.030;13.812;2023-05-24T04:12:13;100622.25;;;10.12;68.40
21730;BME280;11027;51.030;13.812;2023-05-24T04:14:39;100619.84;;;10.09;67.85
21730;BME280;11027;51.030;13.812;2023-05-24T04:17:04;100627.69;;;10.12;68.41
21730;BME280;11027;51.030;13.812;2023-05-24T04:19:30;100625.63;;;10.06;68.01
21730;BME280;11027;51.030;13.812;2023-05-24T04:21:56;100630.72;;;10.01;67.94
21730;BME280;11027;51.030;13.812;2023-05-24T04:24:21;100630.72;;;10.01;68.58
21730;BME280;11027;51.030;13.812;2023-05-24T04:26:46;100633.81;;;10.06;68.85
21730;BME280;11027;51.030;13.812;2023-05-24T04:29:12;100628.69;;;10.03;68.46
21730;BME280;11027;51.030;13.812;2023-05-24T04:31:37;100633.13;;;10.04;68.34
21730;BME280;11027;51.030;13.812;2023-05-24T04:34:07;100634.34;;;10.18;68.50
21730;BME280;11027;51.030;13.812;2023-05-24T04:36:34;100636.59;;;10.31;68.68
21730;BME280;11027;51.030;13.812;2023-05-24T04:39:00;100630.81;;;10.34;68.54
21730;BME280;11027;51.030;13.812;2023-05-24T04:41:28;100636.09;;;10.44;68.34
21730;BME280;11027;51.030;13.812;2023-05-24T04:43:56;100635.44;;;10.50;68.29
21730;BME280;11027;51.030;13.812;2023-05-24T04:46:21;100637.00;;;10.60;67.92
21730;BME280;11027;51.030;13.812;2023-05-24T04:48:46;100638.53;;;10.71;67.81
21730;BME280;11027;51.030;13.812;2023-05-24T04:51:12;100642.78;;;10.74;67.60
21730;BME280;11027;51.030;13.812;2023-05-24T04:53:37;100650.25;;;10.72;66.93
21730;BME280;11027;51.030;13.812;2023-05-24T04:56:02;100646.53;;;10.73;66.53
21730;BME280;11027;51.030;13.812;2023-05-24T04:58:28;100654.84;;;10.55;65.45
21730;BME280;11027;51.030;13.812;2023-05-24T05:00:53;100662.50;;;10.43;65.79
21730;BME280;11027;51.030;13.812;2023-05-24T05:03:18;100660.09;;;10.40;66.08
21730;BME280;11027;51.030;13.812;2023-05-24T05:05:43;100670.00;;;10.41;66.26
21730;BME280;11027;51.030;13.812;2023-05-24T05:08:10;100672.69;;;10.33;66.17
21730;BME280;11027;51.030;13.812;2023-05-24T05:10:35;100672.69;;;10.33;66.36
21730;BME280;11027;51.030;13.812;2023-05-24T05:13:01;100668.94;;;10.34;66.14
21730;BME280;11027;51.030;13.812;2023-05-24T05:15:27;100665.00;;;10.28;66.33
21730;BME280;11027;51.030;13.812;2023-05-24T05:17:52;100666.56;;;10.31;66.78
21730;BME280;11027;51.030;13.812;2023-05-24T05:20:18;100663.50;;;10.34;66.90
21730;BME280;11027;51.030;13.812;2023-05-24T05:22:49;100671.28;;;10.29;66.68
21730;BME280;11027;51.030;13.812;2023-05-24T05:25:14;100663.84;;;10.31;66.53
21730;BME280;11027;51.030;13.812;2023-05-24T05:27:40;100680.19;;;10.31;66.61
21730;BME280;11027;51.030;13.812;2023-05-24T05:30:06;100680.34;;;10.37;66.56
21730;BME280;11027;51.030;13.812;2023-05-24T05:32:32;100677.63;;;10.37;66.70
21730;BME280;11027;51.030;13.812;2023-05-24T05:34:57;100678.16;;;10.33;66.18
21730;BME280;11027;51.030;13.812;2023-05-24T05:37:23;100675.25;;;10.34;66.16
21730;BME280;11027;51.030;13.812;2023-05-24T05:39:48;100677.81;;;10.44;66.30
21730;BME280;11027;51.030;13.812;2023-05-24T05:42:13;100688.53;;;10.46;66.03
21730;BME280;11027;51.030;13.812;2023-05-24T05:44:38;100683.44;;;10.43;65.91
21730;BME280;11027;51.030;13.812;2023-05-24T05:47:04;100675.97;;;10.45;65.76
21730;BME280;11027;51.030;13.812;2023-05-24T05:49:31;100676.97;;;10.52;65.52
21730;BME280;11027;51.030;13.812;2023-05-24T05:52:00;100681.59;;;10.59;65.59
21730;BME280;11027;51.030;13.812;2023-05-24T05:54:25;100683.31;;;10.69;65.46
21730;BME280;11027;51.030;13.812;2023-05-24T05:56:52;100680.41;;;10.70;65.32
21730;BME280;11027;51.030;13.812;2023-05-24T05:59:17;100671.91;;;10.73;65.15
21730;BME280;11027;51.030;13.812;2023-05-24T06:01:43;100685.69;;;10.80;65.06
21730;BME280;11027;51.030;13.812;2023-05-24T06:04:13;100689.78;;;10.76;65.13
21730;BME280;11027;51.030;13.812;2023-05-24T06:06:38;100681.59;;;10.76;64.91
21730;BME280;11027;51.030;13.812;2023-05-24T06:09:04;100679.91;;;10.83;64.79
21730;BME280;11027;51.030;13.812;2023-05-24T06:11:29;100672.06;;;10.80;63.96
21730;BME280;11027;51.030;13.812;2023-05-24T06:13:55;100686.91;;;10.77;64.37
21730;BME280;11027;51.030;13.812;2023-05-24T06:16:20;100682.13;;;10.71;64.42
21730;BME280;11027;51.030;13.812;2023-05-24T06:18:46;100683.66;;;10.74;64.15
21730;BME280;11027;51.030;13.812;2023-05-24T06:21:12;100692.88;;;10.81;64.14
21730;BME280;11027;51.030;13.812;2023-05-24T06:23:37;100708.88;;;10.92;64.55
21730;BME280;11027;51.030;13.812;2023-05-24T06:26:03;100695.59;;;10.89;64.05
21730;BME280;11027;51.030;13.812;2023-05-24T06:28:28;100696.13;;;10.93;64.33
21730;BME280;11027;51.030;13.812;2023-05-24T06:30:54;100700.19;;;11.05;64.28
21730;BME280;11027;51.030;13.812;2023-05-24T06:33:19;100704.63;;;11.06;63.76
21730;BME280;11027;51.030;13.812;2023-05-24T06:35:44;100699.00;;;11.08;63.66
21730;BME280;11027;51.030;13.812;2023-05-24T06:38:10;100697.97;;;11.00;63.46
21730;BME280;11027;51.030;13.812;2023-05-24T06:40:35;100710.44;;;10.95;63.95
21730;BME280;11027;51.030;13.812;2023-05-24T06:43:00;100701.72;;;10.99;64.08
21730;BME280;11027;51.030;13.812;2023-05-24T06:45:25;100704.44;;;11.16;63.60
21730;BME280;11027;51.030;13.812;2023-05-24T06:47:51;100721.16;;;11.21;63.46
21730;BME280;11027;51.030;13.812;2023-05-24T06:50:16;100714.34;;;11.17;63.16
21730;BME280;11027;51.030;13.812;2023-05-24T06:52:42;100713.31;;;11.10;63.59
21730;BME280;11027;51.030;13.812;2023-05-24T06:55:08;100719.09;;;11.07;63.43
21730;BME280;11027;51.030;13.812;2023-05-24T06:57:33;100706.13;;;11.09;63.65
21730;BME280;11027;51.030;13.812;2023-05-24T06:59:58;100704.78;;;11.13;63.31
21730;BME280;11027;51.030;13.812;2023-05-24T07:02:24;100700.88;;;11.15;63.31
21730;BME280;11027;51.030;13.812;2023-05-24T07:04:51;100715.69;;;11.13;63.73
21730;BME280;11027;51.030;13.812;2023-05-24T07:07:17;100718.94;;;11.16;63.47
21730;BME280;11027;51.030;13.812;2023-05-24T07:09:42;100719.81;;;11.17;63.31
21730;BME280;11027;51.030;13.812;2023-05-24T07:12:08;100723.22;;;11.19;62.45
21730;BME280;11027;51.030;13.812;2023-05-24T07:14:34;100723.38;;;11.17;62.11
21730;BME280;11027;51.030;13.812;2023-05-24T07:16:59;100714.31;;;11.33;62.40
21730;BME280;11027;51.030;13.812;2023-05-24T07:19:24;100713.28;;;11.34;61.59
21730;BME280;11027;51.030;13.812;2023-05-24T07:21:54;100711.25;;;11.28;61.29
21730;BME280;11027;51.030;13.812;2023-05-24T07:24:19;100723.53;;;11.16;62.16
21730;BME280;11027;51.030;13.812;2023-05-24T07:26:46;100718.09;;;11.16;62.43
21730;BME280;11027;51.030;13.812;2023-05-24T07:29:11;100721.50;;;11.18;62.19
21730;BME280;11027;51.030;13.812;2023-05-24T07:31:36;100725.91;;;11.11;61.83
21730;BME280;11027;51.030;13.812;2023-05-24T07:34:02;100725.22;;;11.00;62.03
21730;BME280;11027;51.030;13.812;2023-05-24T07:36:27;100715.69;;;10.88;62.56
21730;BME280;11027;51.030;13.812;2023-05-24T07:38:56;100716.03;;;10.85;62.98
21730;BME280;11027;51.030;13.812;2023-05-24T07:41:25;100720.13;;;10.81;63.25
21730;BME280;11027;51.030;13.812;2023-05-24T07:43:50;100736.78;;;10.78;63.63
21730;BME280;11027;51.030;13.812;2023-05-24T07:46:15;100744.28;;;10.76;63.87
21730;BME280;11027;51.030;13.812;2023-05-24T07:48:40;100723.84;;;10.80;64.25
21730;BME280;11027;51.030;13.812;2023-05-24T07:51:06;100724.91;;;10.87;64.42
21730;BME280;11027;51.030;13.812;2023-05-24T07:53:31;100731.34;;;10.94;63.94
21730;BME280;11027;51.030;13.812;2023-05-24T07:55:58;100740.91;;;10.90;63.95
21730;BME280;11027;51.030;13.812;2023-05-24T07:58:23;100743.09;;;10.78;63.70
21730;BME280;11027;51.030;13.812;2023-05-24T08:00:48;100743.97;;;10.79;64.12
21730;BME280;11027;51.030;13.812;2023-05-24T08:03:14;100746.69;;;10.79;64.18
21730;BME280;11027;51.030;13.812;2023-05-24T08:05:39;100751.63;;;10.84;64.49
21730;BME280;11027;51.030;13.812;2023-05-24T08:08:05;100749.06;;;10.82;63.94
21730;BME280;11027;51.030;13.812;2023-05-24T08:10:30;100755.19;;;10.76;63.99
21730;BME280;11027;51.030;13.812;2023-05-24T08:12:56;100758.75;;;10.76;63.55
21730;BME280;11027;51.030;13.812;2023-05-24T08:15:21;100757.41;;;10.80;63.55
21730;BME280;11027;51.030;13.812;2023-05-24T08:17:47;100748.25;;;10.98;63.50
21730;BME280;11027;51.030;13.812;2023-05-24T08:20:12;100750.81;;;10.99;62.65
21730;BME280;11027;51.030;13.812;2023-05-24T08:22:42;100752.84;;;11.14;62.87
21730;BME280;11027;51.030;13.812;2023-05-24T08:25:08;100763.44;;;11.33;62.85
21730;BME280;11027;51.030;13.812;2023-05-24T08:27:33;100759.34;;;11.37;61.63
21730;BME280;11027;51.030;13.812;2023-05-24T08:29:58;100759.16;;;11.31;61.31
21730;BME280;11027;51.030;13.812;2023-05-24T08:32:24;100759.66;;;11.34;61.28
21730;BME280;11027;51.030;13.812;2023-05-24T08:34:49;100758.13;;;11.40;61.53
21730;BME280;11027;51.030;13.812;2023-05-24T08:37:15;100752.31;;;11.43;60.84
21730;BME280;11027;51.030;13.812;2023-05-24T08:39:43;100761.38;;;11.52;59.96
21730;BME280;11027;51.030;13.812;2023-05-24T08:42:09;100755.91;;;11.52;59.07
21730;BME280;11027;51.030;13.812;2023-05-24T08:44:40;100759.97;;;11.64;59.32
21730;BME280;11027;51.030;13.812;2023-05-24T08:47:10;100760.97;;;11.71;58.76
21730;BME280;11027;51.030;13.812;2023-05-24T08:49:36;100758.22;;;11.79;58.92
21730;BME280;11027;51.030;13.812;2023-05-24T08:52:03;100757.16;;;12.05;59.35
21730;BME280;11027;51.030;13.812;2023-05-24T08:54:29;100763.28;;;12.15;58.00
21730;BME280;11027;51.030;13.812;2023-05-24T08:56:55;100757.84;;;12.07;57.26
21730;BME280;11027;51.030;13.812;2023-05-24T08:59:22;100768.94;;;12.06;56.68
21730;BME280;11027;51.030;13.812;2023-05-24T09:01:52;100772.19;;;12.09;56.33
21730;BME280;11027;51.030;13.812;2023-05-24T09:04:18;100765.84;;;12.17;56.34
21730;BME280;11027;51.030;13.812;2023-05-24T09:06:45;100760.81;;;12.37;56.01
21730;BME280;11027;51.030;13.812;2023-05-24T09:09:13;100750.50;;;12.47;55.99
21730;BME280;11027;51.030;13.812;2023-05-24T09:11:41;100759.03;;;12.52;54.94
21730;BME280;11027;51.030;13.812;2023-05-24T09:14:07;100753.94;;;12.41;54.77
21730;BME280;11027;51.030;13.812;2023-05-24T09:16:33;100761.09;;;12.50;54.84
21730;BME280;11027;51.030;13.812;2023-05-24T09:18:58;100759.28;;;12.66;55.11
21730;BME280;11027;51.030;13.812;2023-05-24T09:21:23;100763.91;;;12.88;54.46
21730;BME280;11027;51.030;13.812;2023-05-24T09:23:50;100765.69;;;12.81;54.23
21730;BME280;11027;51.030;13.812;2023-05-24T09:26:16;100758.78;;;12.93;54.96
21730;BME280;11027;51.030;13.812;2023-05-24T09:28:41;100750.75;;;13.15;54.50
21730;BME280;11027;51.030;13.812;2023-05-24T09:31:07;100755.19;;;13.16;53.75
21730;BME280;11027;51.030;13.812;2023-05-24T09:33:33;100761.63;;;13.23;53.70
21730;BME280;11027;51.030;13.812;2023-05-24T09:36:00;100768.31;;;12.97;53.60
21730;BME280;11027;51.030;13.812;2023-05-24T09:38:26;100771.34;;;13.02;54.08
21730;BME280;11027;51.030;13.812;2023-05-24T09:41:00;100768.38;;;12.89;53.46
21730;BME280;11027;51.030;13.812;2023-05-24T09:43:27;100765.53;;;12.83;53.61
21730;BME280;11027;51.030;13.812;2023-05-24T09:45:54;100759.19;;;12.82;53.99
21730;BME280;11027;51.030;13.812;2023-05-24T09:48:20;100757.22;;;12.68;53.45
21730;BME280;11027;51.030;13.812;2023-05-24T09:51:02;100760.00;;;12.59;53.81
21730;BME280;11027;51.030;13.812;2023-05-24T09:53:29;100752.78;;;12.67;53.67
21730;BME280;11027;51.030;13.812;2023-05-24T09:55:56;100748.56;;;12.87;53.88
21730;BME280;11027;51.030;13.812;2023-05-24T09:58:21;100752.97;;;12.88;53.90
21730;BME280;11027;51.030;13.812;2023-05-24T10:00:47;100749.84;;;12.99;53.91
21730;BME280;11027;51.030;13.812;2023-05-24T10:03:12;100760.28;;;12.96;52.55
21730;BME280;11027;51.030;13.812;2023-05-24T10:05:42;100754.31;;;12.92;52.84
21730;BME280;11027;51.030;13.812;2023-05-24T10:08:08;100753.28;;;13.16;53.09
21730;BME280;11027;51.030;13.812;2023-05-24T10:10:35;100759.25;;;13.43;52.87
21730;BME280;11027;51.030;13.812;2023-05-24T10:13:01;100761.38;;;13.56;52.39
21730;BME280;11027;51.030;13.812;2023-05-24T10:15:27;100762.78;;;13.67;52.22
21730;BME280;11027;51.030;13.812;2023-05-24T10:17:53;100755.72;;;13.72;51.78
21730;BME280;11027;51.030;13.812;2023-05-24T10:20:20;100760.34;;;13.72;51.27
21730;BME280;11027;51.030;13.812;2023-05-24T10:22:47;100766.28;;;13.75;51.20
21730;BME280;11027;51.030;13.812;2023-05-24T10:25:20;100768.31;;;13.96;51.74
21730;BME280;11027;51.030;13.812;2023-05-24T10:27:48;100761.41;;;13.86;50.94
21730;BME280;11027;51.030;13.812;2023-05-24T10:32:55;100758.72;;;13.48;50.93
21730;BME280;11027;51.030;13.812;2023-05-24T10:35:22;100753.38;;;13.31;51.74
21730;BME280;11027;51.030;13.812;2023-05-24T10:37:48;100753.38;;;13.31;52.12
21730;BME280;11027;51.030;13.812;2023-05-24T10:40:18;100748.19;;;13.36;52.09
21730;BME280;11027;51.030;13.812;2023-05-24T10:42:45;100763.78;;;13.51;51.91
21730;BME280;11027;51.030;13.812;2023-05-24T10:45:29;100763.19;;;13.64;51.72
21730;BME280;11027;51.030;13.812;2023-05-24T10:48:00;100768.75;;;13.70;51.16
21730;BME280;11027;51.030;13.812;2023-05-24T10:50:27;100768.47;;;13.80;50.82
21730;BME280;11027;51.030;13.812;2023-05-24T10:53:09;100774.16;;;13.93;50.47
21730;BME280;11027;51.030;13.812;2023-05-24T10:55:50;100780.63;;;13.77;49.66
21730;BME280;11027;51.030;13.812;2023-05-24T10:58:16;100767.06;;;13.99;50.12
21730;BME280;11027;51.030;13.812;2023-05-24T11:00:42;100767.06;;;14.29;50.17
21730;BME280;11027;51.030;13.812;2023-05-24T11:03:09;100769.81;;;14.58;49.70
21730;BME280;11027;51.030;13.812;2023-05-24T11:08:13;100791.06;;;14.27;49.29
21730;BME280;11027;51.030;13.812;2023-05-24T11:10:38;100784.94;;;14.25;49.56
21730;BME280;11027;51.030;13.812;2023-05-24T11:13:06;100782.19;;;14.25;49.72
21730;BME280;11027;51.030;13.812;2023-05-24T11:15:33;100774.78;;;14.40;49.53
21730;BME280;11027;51.030;13.812;2023-05-24T11:20:34;100771.78;;;14.86;48.41
21730;BME280;11027;51.030;13.812;2023-05-24T11:23:02;100780.78;;;14.80;47.44
21730;BME280;11027;51.030;13.812;2023-05-24T11:25:28;100766.81;;;14.75;46.88
21730;BME280;11027;51.030;13.812;2023-05-24T11:27:57;100760.75;;;14.79;47.42
21730;BME280;11027;51.030;13.812;2023-05-24T11:30:22;100759.56;;;14.67;47.90
21730;BME280;11027;51.030;13.812;2023-05-24T11:32:48;100760.34;;;14.61;47.33
21730;BME280;11027;51.030;13.812;2023-05-24T11:35:13;100756.97;;;14.80;47.56
21730;BME280;11027;51.030;13.812;2023-05-24T11:37:40;100755.81;;;15.11;47.91
21730;BME280;11027;51.030;13.812;2023-05-24T11:40:05;100733.25;;;15.37;47.58
21730;BME280;11027;51.030;13.812;2023-05-24T11:42:34;100751.41;;;15.38;47.15
21730;BME280;11027;51.030;13.812;2023-05-24T11:45:02;100751.69;;;15.44;47.36
21730;BME280;11027;51.030;13.812;2023-05-24T11:47:27;100754.16;;;15.38;46.51
21730;BME280;11027;51.030;13.812;2023-05-24T11:49:52;100755.72;;;15.48;46.79
21730;BME280;11027;51.030;13.812;2023-05-24T11:52:18;100745.31;;;15.71;46.79
21730;BME280;11027;51.030;13.812;2023-05-24T11:54:44;100751.53;;;16.08;46.09
21730;BME280;11027;51.030;13.812;2023-05-24T11:57:12;100752.97;;;16.04;45.79
21730;BME280;11027;51.030;13.812;2023-05-24T11:59:39;100754.75;;;15.84;45.75
21730;BME280;11027;51.030;13.812;2023-05-24T12:02:05;100757.19;;;15.72;45.44
21730;BME280;11027;51.030;13.812;2023-05-24T12:04:31;100764.94;;;15.40;46.05
21730;BME280;11027;51.030;13.812;2023-05-24T12:06:58;100774.84;;;15.13;46.90
21730;BME280;11027;51.030;13.812;2023-05-24T12:09:23;100765.50;;;15.07;47.19
21730;BME280;11027;51.030;13.812;2023-05-24T12:11:50;100769.72;;;15.10;47.87
21730;BME280;11027;51.030;13.812;2023-05-24T12:14:18;100751.22;;;15.18;47.34
21730;BME280;11027;51.030;13.812;2023-05-24T12:16:45;100754.41;;;15.44;46.97
21730;BME280;11027;51.030;13.812;2023-05-24T12:19:17;100759.00;;;15.86;46.84
21730;BME280;11027;51.030;13.812;2023-05-24T12:21:43;100764.78;;;15.98;45.31
21730;BME280;11027;51.030;13.812;2023-05-24T12:24:16;100764.47;;;15.79;44.97
21730;BME280;11027;51.030;13.812;2023-05-24T12:26:46;100753.94;;;15.90;45.24
21730;BME280;11027;51.030;13.812;2023-05-24T12:29:12;100751.09;;;16.11;44.25
21730;BME280;11027;51.030;13.812;2023-05-24T12:31:40;100771.81;;;16.07;44.57
21730;BME280;11027;51.030;13.812;2023-05-24T12:34:12;100760.34;;;16.04;45.33
21730;BME280;11027;51.030;13.812;2023-05-24T12:36:38;100755.88;;;16.31;45.76
21730;BME280;11027;51.030;13.812;2023-05-24T12:39:19;100776.41;;;16.83;45.63
21730;BME280;11027;51.030;13.812;2023-05-24T12:41:52;100757.38;;;16.88;43.37
21730;BME280;11027;51.030;13.812;2023-05-24T12:44:26;100759.00;;;16.76;43.09
21730;BME280;11027;51.030;13.812;2023-05-24T12:46:55;100752.78;;;17.09;43.49
21730;BME280;11027;51.030;13.812;2023-05-24T12:49:21;100745.59;;;17.68;43.15
21730;BME280;11027;51.030;13.812;2023-05-24T12:51:47;100750.81;;;18.09;41.68